sensor_id;sensor_type;location;lat;lon;timestamp;temperature;humidity
59313;DHT22;45084;51.486;7.366;2023-12-22T00:01:05;5.30;99.90
59313;DHT22;45084;51.486;7.366;2023-12-22T00:03:31;5.10;99.90
59313;DHT22;45084;51.486;7.366;2023-12-22T00:05:57;5.10;99.90
59313;DHT22;45084;51.486;7.366;2023-12-22T00:08:22;5.10;99.90
59313;DHT22;45084;51.486;7.366;2023-12-22T00:10:49;5.10;99.90
59313;DHT22;45084;51.486;7.366;2023-12-22T00:13:14;5.00;99.90
59313;DHT22;45084;51.486;7.366;2023-12-22T00:15:40;4.90;99.90
59313;DHT22;45084;51.486;7.366;2023-12-22T00:18:07;5.10;99.90
59313;DHT22;45084;51.486;7.366;2023-12-22T00:20:33;5.00;99.90
59313;DHT22;45084;51.486;7.366;2023-12-22T00:22:59;5.00;99.90
59313;DHT22;45084;51.486;7.366;2023-12-22T00:25:24;4.90;99.90
59313;DHT22;45084;51.486;7.366;2023-12-22T00:27:50;4.90;99.90
59313;DHT22;45084;51.486;7.366;2023-12-22T00:30:16;4.90;99.90
59313;DHT22;45084;51.486;7.366;2023-12-22T00:32:41;5.00;99.90
59313;DHT22;45084;51.486;7.366;2023-12-22T00:35:08;5.10;99.90
59313;DHT22;45084;51.486;7.366;2023-12-22T00:37:33;5.10;99.90
59313;DHT22;45084;51.486;7.366;2023-12-22T00:39:59;5.10;99.90
59313;DHT22;45084;51.486;7.366;2023-12-22T00:42:25;5.00;99.90
59313;DHT22;45084;51.486;7.366;2023-12-22T00:44:51;5.00;99.90
59313;DHT22;45084;51.486;7.366;2023-12-22T00:47:17;5.00;99.90
59313;DHT22;45084;51.486;7.366;2023-12-22T00:49:42;5.00;99.90
59313;DHT22;45084;51.486;7.366;2023-12-22T00:52:08;5.00;99.90
59313;DHT22;45084;51.486;7.366;2023-12-22T00:54:33;5.00;99.90
59313;DHT22;45084;51.486;7.366;2023-12-22T00:56:59;5.00;99.90
59313;DHT22;45084;51.486;7.366;2023-12-22T00:59:25;5.00;99.90
59313;DHT22;45084;51.486;7.366;2023-12-22T01:01:50;5.00;99.90
59313;DHT22;45084;51.486;7.366;2023-12-22T01:04:18;5.00;99.90
59313;DHT22;45084;51.486;7.366;2023-12-22T01:06:44;5.00;99.90
59313;DHT22;45084;51.486;7.366;2023-12-22T01:09:09;5.10;99.90
59313;DHT22;45084;51.486;7.366;2023-12-22T01:11:35;5.00;99.90
59313;DHT22;45084;51.486;7.366;2023-12-22T01:14:04;5.00;99.90
59313;DHT22;45084;51.486;7.366;2023-12-22T01:16:29;4.90;99.90
59313;DHT22;45084;51.486;7.366;2023-12-22T01:18:55;4.90;99.90
59313;DHT22;45084;51.486;7.366;2023-12-22T01:21:20;5.00;99.90
59313;DHT22;45084;51.486;7.366;2023-12-22T01:23:46;5.00;99.90
59313;DHT22;45084;51.486;7.366;2023-12-22T01:26:12;5.10;99.90
59313;DHT22;45084;51.486;7.366;2023-12-22T01:28:37;5.10;99.90
59313;DHT22;45084;51.486;7.366;2023-12-22T01:31:03;5.20;99.90
59313;DHT22;45084;51.486;7.366;2023-12-22T01:33:29;5.20;99.90
59313;DHT22;45084;51.486;7.366;2023-12-22T01:35:55;5.30;99.90
59313;DHT22;45084;51.486;7.366;2023-12-22T01:38:20;5.30;99.90
59313;DHT22;45084;51.486;7.366;2023-12-22T01:40:46;5.40;99.90
59313;DHT22;45084;51.486;7.366;2023-12-22T01:43:12;5.50;99.90
59313;DHT22;45084;51.486;7.366;2023-12-22T01:45:40;5.50;99.90
59313;DHT22;45084;51.486;7.366;2023-12-22T01:48:09;5.50;99.90
59313;DHT22;45084;51.486;7.366;2023-12-22T01:50:35;5.40;99.90
59313;DHT22;45084;51.486;7.366;2023-12-22T01:53:02;5.60;99.90
59313;DHT22;45084;51.486;7.366;2023-12-22T01:55:28;5.70;99.90
59313;DHT22;45084;51.486;7.366;2023-12-22T01:57:55;5.70;99.90
59313;DHT22;45084;51.486;7.366;2023-12-22T02:00:21;5.70;99.90
59313;DHT22;45084;51.486;7.366;2023-12-22T02:02:47;5.70;99.90
59313;DHT22;45084;51.486;7.366;2023-12-22T02:05:13;5.80;99.90
59313;DHT22;45084;51.486;7.366;2023-12-22T02:07:41;5.60;99.90
59313;DHT22;45084;51.486;7.366;2023-12-22T02:10:10;5.60;99.90
59313;DHT22;45084;51.486;7.366;2023-12-22T02:12:36;5.60;99.90
59313;DHT22;45084;51.486;7.366;2023-12-22T02:15:02;5.60;99.90
59313;DHT22;45084;51.486;7.366;2023-12-22T02:17:54;5.50;99.90
59313;DHT22;45084;51.486;7.366;2023-12-22T02:20:21;5.40;99.90
59313;DHT22;45084;51.486;7.366;2023-12-22T02:22:51;5.30;99.90
59313;DHT22;45084;51.486;7.366;2023-12-22T02:25:18;5.20;99.90
59313;DHT22;45084;51.486;7.366;2023-12-22T02:27:53;5.20;99.90
59313;DHT22;45084;51.486;7.366;2023-12-22T02:30:34;5.20;99.90
59313;DHT22;45084;51.486;7.366;2023-12-22T02:33:05;5.10;99.90
59313;DHT22;45084;51.486;7.366;2023-12-22T02:35:33;5.20;99.90
59313;DHT22;45084;51.486;7.366;2023-12-22T02:38:02;5.20;99.90
59313;DHT22;45084;51.486;7.366;2023-12-22T02:40:28;5.10;99.90
59313;DHT22;45084;51.486;7.366;2023-12-22T02:42:55;5.20;99.90
59313;DHT22;45084;51.486;7.366;2023-12-22T02:45:20;5.20;99.90
59313;DHT22;45084;51.486;7.366;2023-12-22T02:47:46;5.10;99.90
59313;DHT22;45084;51.486;7.366;2023-12-22T02:50:14;5.10;99.90
59313;DHT22;45084;51.486;7.366;2023-12-22T02:52:40;5.00;99.90
59313;DHT22;45084;51.486;7.366;2023-12-22T02:55:06;4.90;99.90
59313;DHT22;45084;51.486;7.366;2023-12-22T02:57:32;4.90;99.90
59313;DHT22;45084;51.486;7.366;2023-12-22T02:59:57;5.00;99.90
59313;DHT22;45084;51.486;7.366;2023-12-22T03:02:23;5.00;99.90
59313;DHT22;45084;51.486;7.366;2023-12-22T03:04:49;5.10;99.90
59313;DHT22;45084;51.486;7.366;2023-12-22T03:07:15;5.20;99.90
59313;DHT22;45084;51.486;7.366;2023-12-22T03:09:41;5.20;99.90
59313;DHT22;45084;51.486;7.366;2023-12-22T03:12:07;5.10;99.90
59313;DHT22;45084;51.486;7.366;2023-12-22T03:14:33;5.10;99.90
59313;DHT22;45084;51.486;7.366;2023-12-22T03:19:43;5.20;99.90
59313;DHT22;45084;51.486;7.366;2023-12-22T03:22:09;5.20;99.90
59313;DHT22;45084;51.486;7.366;2023-12-22T03:24:34;5.20;99.90
59313;DHT22;45084;51.486;7.366;2023-12-22T03:27:01;5.30;99.90
59313;DHT22;45084;51.486;7.366;2023-12-22T03:29:27;5.30;99.90
59313;DHT22;45084;51.486;7.366;2023-12-22T03:31:53;5.40;99.90
59313;DHT22;45084;51.486;7.366;2023-12-22T03:34:18;5.40;99.90
59313;DHT22;45084;51.486;7.366;2023-12-22T03:36:44;5.50;99.90
59313;DHT22;45084;51.486;7.366;2023-12-22T03:39:14;5.50;99.90
59313;DHT22;45084;51.486;7.366;2023-12-22T03:41:40;5.50;99.90
59313;DHT22;45084;51.486;7.366;2023-12-22T03:44:06;5.60;99.90
59313;DHT22;45084;51.486;7.366;2023-12-22T03:46:32;5.50;99.90
59313;DHT22;45084;51.486;7.366;2023-12-22T03:48:58;5.30;99.90
59313;DHT22;45084;51.486;7.366;2023-12-22T03:51:23;5.30;99.90
59313;DHT22;45084;51.486;7.366;2023-12-22T03:53:49;5.30;99.90
59313;DHT22;45084;51.486;7.366;2023-12-22T03:56:15;5.20;99.90
59313;DHT22;45084;51.486;7.366;2023-12-22T03:58:40;5.20;99.90
59313;DHT22;45084;51.486;7.366;2023-12-22T04:01:06;5.10;99.90
59313;DHT22;45084;51.486;7.366;2023-12-22T04:03:34;5.10;99.90
59313;DHT22;45084;51.486;7.366;2023-12-22T04:06:03;5.20;99.90
59313;DHT22;45084;51.486;7.366;2023-12-22T04:08:29;5.30;99.90
59313;DHT22;45084;51.486;7.366;2023-12-22T04:10:55;5.30;99.90
59313;DHT22;45084;51.486;7.366;2023-12-22T04:13:21;5.30;99.90
59313;DHT22;45084;51.486;7.366;2023-12-22T04:15:47;4.80;99.90
59313;DHT22;45084;51.486;7.366;2023-12-22T04:18:12;4.70;99.90
59313;DHT22;45084;51.486;7.366;2023-12-22T04:20:38;4.50;99.90
59313;DHT22;45084;51.486;7.366;2023-12-22T04:23:03;4.20;99.90
59313;DHT22;45084;51.486;7.366;2023-12-22T04:25:29;4.10;99.90
59313;DHT22;45084;51.486;7.366;2023-12-22T04:27:54;4.00;99.90
59313;DHT22;45084;51.486;7.366;2023-12-22T04:30:20;3.90;99.90
59313;DHT22;45084;51.486;7.366;2023-12-22T04:32:46;3.90;99.90
59313;DHT22;45084;51.486;7.366;2023-12-22T04:35:11;4.10;99.90
59313;DHT22;45084;51.486;7.366;2023-12-22T04:37:37;4.20;99.90
59313;DHT22;45084;51.486;7.366;2023-12-22T04:40:03;4.20;99.90
59313;DHT22;45084;51.486;7.366;2023-12-22T04:42:29;4.20;99.90
59313;DHT22;45084;51.486;7.366;2023-12-22T04:44:54;4.30;99.90
59313;DHT22;45084;51.486;7.366;2023-12-22T04:47:20;4.30;99.90
59313;DHT22;45084;51.486;7.366;2023-12-22T04:49:46;4.40;99.90
59313;DHT22;45084;51.486;7.366;2023-12-22T04:52:12;4.40;99.90
59313;DHT22;45084;51.486;7.366;2023-12-22T04:54:38;4.40;99.90
59313;DHT22;45084;51.486;7.366;2023-12-22T04:57:04;4.40;99.90
59313;DHT22;45084;51.486;7.366;2023-12-22T04:59:29;4.40;99.90
59313;DHT22;45084;51.486;7.366;2023-12-22T05:01:55;4.30;99.90
59313;DHT22;45084;51.486;7.366;2023-12-22T05:04:21;4.30;99.90
59313;DHT22;45084;51.486;7.366;2023-12-22T05:06:47;4.20;99.90
59313;DHT22;45084;51.486;7.366;2023-12-22T05:09:13;4.30;99.90
59313;DHT22;45084;51.486;7.366;2023-12-22T05:11:39;4.20;99.90
59313;DHT22;45084;51.486;7.366;2023-12-22T05:14:04;4.20;99.90
59313;DHT22;45084;51.486;7.366;2023-12-22T05:16:30;4.20;99.90
59313;DHT22;45084;51.486;7.366;2023-12-22T05:19:00;4.20;99.90
59313;DHT22;45084;51.486;7.366;2023-12-22T05:21:25;4.30;99.90
59313;DHT22;45084;51.486;7.366;2023-12-22T05:23:51;4.20;99.90
59313;DHT22;45084;51.486;7.366;2023-12-22T05:26:17;4.30;99.90
59313;DHT22;45084;51.486;7.366;2023-12-22T05:28:43;4.20;99.90
59313;DHT22;45084;51.486;7.366;2023-12-22T05:31:09;4.30;99.90
59313;DHT22;45084;51.486;7.366;2023-12-22T05:33:35;4.30;99.90
59313;DHT22;45084;51.486;7.366;2023-12-22T05:36:00;4.40;99.90
59313;DHT22;45084;51.486;7.366;2023-12-22T05:38:26;4.40;99.90
59313;DHT22;45084;51.486;7.366;2023-12-22T05:40:52;4.40;99.90
59313;DHT22;45084;51.486;7.366;2023-12-22T05:43:17;4.40;99.90
59313;DHT22;45084;51.486;7.366;2023-12-22T05:45:43;4.30;99.90
59313;DHT22;45084;51.486;7.366;2023-12-22T05:48:08;4.40;99.90
59313;DHT22;45084;51.486;7.366;2023-12-22T05:50:34;4.50;99.90
59313;DHT22;45084;51.486;7.366;2023-12-22T05:53:00;4.50;99.90
59313;DHT22;45084;51.486;7.366;2023-12-22T05:55:25;4.50;99.90
59313;DHT22;45084;51.486;7.366;2023-12-22T05:57:51;4.50;99.90
59313;DHT22;45084;51.486;7.366;2023-12-22T06:00:20;4.60;99.90
59313;DHT22;45084;51.486;7.366;2023-12-22T06:02:46;4.60;99.90
59313;DHT22;45084;51.486;7.366;2023-12-22T06:05:14;4.70;99.90
59313;DHT22;45084;51.486;7.366;2023-12-22T06:07:40;4.70;99.90
59313;DHT22;45084;51.486;7.366;2023-12-22T06:10:06;4.70;99.90
59313;DHT22;45084;51.486;7.366;2023-12-22T06:12:34;4.60;99.90
59313;DHT22;45084;51.486;7.366;2023-12-22T06:15:00;4.60;99.90
59313;DHT22;45084;51.486;7.366;2023-12-22T06:17:26;4.70;99.90
59313;DHT22;45084;51.486;7.366;2023-12-22T06:19:51;4.70;99.90
59313;DHT22;45084;51.486;7.366;2023-12-22T06:22:17;4.70;99.90
59313;DHT22;45084;51.486;7.366;2023-12-22T06:24:42;4.70;99.90
59313;DHT22;45084;51.486;7.366;2023-12-22T06:27:08;4.70;99.90
59313;DHT22;45084;51.486;7.366;2023-12-22T06:29:34;4.70;99.90
59313;DHT22;45084;51.486;7.366;2023-12-22T06:31:59;4.70;99.90
59313;DHT22;45084;51.486;7.366;2023-12-22T06:34:25;4.80;99.90
59313;DHT22;45084;51.486;7.366;2023-12-22T06:36:51;4.70;99.90
59313;DHT22;45084;51.486;7.366;2023-12-22T06:39:17;4.80;99.90
59313;DHT22;45084;51.486;7.366;2023-12-22T06:41:42;4.80;99.90
59313;DHT22;45084;51.486;7.366;2023-12-22T06:44:08;4.70;99.90
59313;DHT22;45084;51.486;7.366;2023-12-22T06:46:36;4.70;99.90
59313;DHT22;45084;51.486;7.366;2023-12-22T06:49:01;4.80;99.90
59313;DHT22;45084;51.486;7.366;2023-12-22T06:51:29;4.70;99.90
59313;DHT22;45084;51.486;7.366;2023-12-22T06:54:00;4.70;99.90
59313;DHT22;45084;51.486;7.366;2023-12-22T06:56:31;4.70;99.90
59313;DHT22;45084;51.486;7.366;2023-12-22T06:58:57;4.70;99.90
59313;DHT22;45084;51.486;7.366;2023-12-22T07:01:30;4.70;99.90
59313;DHT22;45084;51.486;7.366;2023-12-22T07:04:01;4.60;99.90
59313;DHT22;45084;51.486;7.366;2023-12-22T07:06:30;4.60;99.90
59313;DHT22;45084;51.486;7.366;2023-12-22T07:11:50;4.70;99.90
59313;DHT22;45084;51.486;7.366;2023-12-22T07:14:17;4.70;99.90
59313;DHT22;45084;51.486;7.366;2023-12-22T07:16:42;4.70;99.90
59313;DHT22;45084;51.486;7.366;2023-12-22T07:19:08;4.70;99.90
59313;DHT22;45084;51.486;7.366;2023-12-22T07:21:34;4.70;99.90
59313;DHT22;45084;51.486;7.366;2023-12-22T07:24:00;4.80;99.90
59313;DHT22;45084;51.486;7.366;2023-12-22T07:26:29;4.80;99.90
59313;DHT22;45084;51.486;7.366;2023-12-22T07:28:54;4.80;99.90
59313;DHT22;45084;51.486;7.366;2023-12-22T07:31:20;4.90;99.90
59313;DHT22;45084;51.486;7.366;2023-12-22T07:33:46;4.90;99.90
59313;DHT22;45084;51.486;7.366;2023-12-22T07:36:12;4.80;99.90
59313;DHT22;45084;51.486;7.366;2023-12-22T07:38:38;4.80;99.90
59313;DHT22;45084;51.486;7.366;2023-12-22T07:41:07;4.80;99.90
59313;DHT22;45084;51.486;7.366;2023-12-22T07:43:32;4.80;99.90
59313;DHT22;45084;51.486;7.366;2023-12-22T07:45:58;4.90;99.90
59313;DHT22;45084;51.486;7.366;2023-12-22T07:48:24;4.90;99.90
59313;DHT22;45084;51.486;7.366;2023-12-22T07:50:50;4.90;99.90
59313;DHT22;45084;51.486;7.366;2023-12-22T07:53:15;4.90;99.90
59313;DHT22;45084;51.486;7.366;2023-12-22T07:55:42;5.00;99.90
59313;DHT22;45084;51.486;7.366;2023-12-22T07:58:08;5.10;99.90
59313;DHT22;45084;51.486;7.366;2023-12-22T08:00:34;5.10;99.90
59313;DHT22;45084;51.486;7.366;2023-12-22T08:03:03;5.30;99.90
59313;DHT22;45084;51.486;7.366;2023-12-22T08:08:04;5.30;99.90
59313;DHT22;45084;51.486;7.366;2023-12-22T08:10:30;5.30;99.90
59313;DHT22;45084;51.486;7.366;2023-12-22T08:12:55;5.40;99.90
59313;DHT22;45084;51.486;7.366;2023-12-22T08:15:22;5.50;99.90
59313;DHT22;45084;51.486;7.366;2023-12-22T08:17:50;5.70;99.90
59313;DHT22;45084;51.486;7.366;2023-12-22T08:20:22;5.70;99.90
59313;DHT22;45084;51.486;7.366;2023-12-22T08:22:49;5.90;99.90
59313;DHT22;45084;51.486;7.366;2023-12-22T08:25:15;6.00;99.90
59313;DHT22;45084;51.486;7.366;2023-12-22T08:27:41;6.10;99.90
59313;DHT22;45084;51.486;7.366;2023-12-22T08:30:08;6.20;99.90
59313;DHT22;45084;51.486;7.366;2023-12-22T08:32:34;6.30;99.90
59313;DHT22;45084;51.486;7.366;2023-12-22T08:35:00;6.30;99.90
59313;DHT22;45084;51.486;7.366;2023-12-22T08:37:25;6.40;99.90
59313;DHT22;45084;51.486;7.366;2023-12-22T08:39:51;6.60;99.90
59313;DHT22;45084;51.486;7.366;2023-12-22T08:42:18;6.70;99.90
59313;DHT22;45084;51.486;7.366;2023-12-22T08:44:44;6.70;99.90
59313;DHT22;45084;51.486;7.366;2023-12-22T08:47:10;6.80;99.90
59313;DHT22;45084;51.486;7.366;2023-12-22T08:49:35;6.80;99.90
59313;DHT22;45084;51.486;7.366;2023-12-22T08:52:01;6.90;99.90
59313;DHT22;45084;51.486;7.366;2023-12-22T08:54:29;6.90;99.90
59313;DHT22;45084;51.486;7.366;2023-12-22T08:56:55;7.00;99.90
59313;DHT22;45084;51.486;7.366;2023-12-22T08:59:21;6.90;99.90
59313;DHT22;45084;51.486;7.366;2023-12-22T09:01:47;7.00;99.90
59313;DHT22;45084;51.486;7.366;2023-12-22T09:04:12;6.90;99.90
59313;DHT22;45084;51.486;7.366;2023-12-22T09:06:38;7.00;99.90
59313;DHT22;45084;51.486;7.366;2023-12-22T09:09:05;7.00;99.90
59313;DHT22;45084;51.486;7.366;2023-12-22T09:11:31;7.10;99.90
59313;DHT22;45084;51.486;7.366;2023-12-22T09:13:57;7.10;99.90
59313;DHT22;45084;51.486;7.366;2023-12-22T09:18:58;7.10;99.90
59313;DHT22;45084;51.486;7.366;2023-12-22T09:21:24;7.20;99.90
59313;DHT22;45084;51.486;7.366;2023-12-22T09:24:03;7.20;99.90
59313;DHT22;45084;51.486;7.366;2023-12-22T09:26:52;7.20;99.90
59313;DHT22;45084;51.486;7.366;2023-12-22T09:29:31;7.20;99.90
59313;DHT22;45084;51.486;7.366;2023-12-22T09:31:59;7.20;99.90
59313;DHT22;45084;51.486;7.366;2023-12-22T09:34:26;7.10;99.90
59313;DHT22;45084;51.486;7.366;2023-12-22T09:36:52;7.10;99.90
59313;DHT22;45084;51.486;7.366;2023-12-22T09:39:18;7.10;99.90
59313;DHT22;45084;51.486;7.366;2023-12-22T09:41:49;6.90;99.90
59313;DHT22;45084;51.486;7.366;2023-12-22T09:44:19;6.80;99.90
59313;DHT22;45084;51.486;7.366;2023-12-22T09:46:47;6.70;99.90
59313;DHT22;45084;51.486;7.366;2023-12-22T09:49:14;6.70;99.90
59313;DHT22;45084;51.486;7.366;2023-12-22T09:51:41;6.70;99.90
59313;DHT22;45084;51.486;7.366;2023-12-22T09:54:07;6.70;99.90
59313;DHT22;45084;51.486;7.366;2023-12-22T09:56:33;6.60;99.90
59313;DHT22;45084;51.486;7.366;2023-12-22T09:58:59;6.50;99.90
59313;DHT22;45084;51.486;7.366;2023-12-22T10:01:28;6.40;99.90
59313;DHT22;45084;51.486;7.366;2023-12-22T10:03:55;6.40;99.90
59313;DHT22;45084;51.486;7.366;2023-12-22T10:06:28;6.30;99.90
59313;DHT22;45084;51.486;7.366;2023-12-22T10:09:04;6.20;99.90
59313;DHT22;45084;51.486;7.366;2023-12-22T11:45:55;6.90;99.90
59313;DHT22;45084;51.486;7.366;2023-12-22T12:01:29;6.90;99.90
59313;DHT22;45084;51.486;7.366;2023-12-22T12:04:23;6.90;99.90
59313;DHT22;45084;51.486;7.366;2023-12-22T12:06:51;6.80;99.90
59313;DHT22;45084;51.486;7.366;2023-12-22T12:22:21;6.90;99.90
59313;DHT22;45084;51.486;7.366;2023-12-22T12:24:55;6.90;99.90
59313;DHT22;45084;51.486;7.366;2023-12-22T12:27:40;7.00;99.90
59313;DHT22;45084;51.486;7.366;2023-12-22T12:41:08;7.20;99.90
59313;DHT22;45084;51.486;7.366;2023-12-22T12:43:54;7.20;99.90
59313;DHT22;45084;51.486;7.366;2023-12-22T14:18:13;7.90;99.90
59313;DHT22;45084;51.486;7.366;2023-12-22T14:21:04;8.10;99.90
59313;DHT22;45084;51.486;7.366;2023-12-22T14:23:51;8.20;99.90
59313;DHT22;45084;51.486;7.366;2023-12-22T14:31:38;8.30;99.90
59313;DHT22;45084;51.486;7.366;2023-12-22T14:36:49;8.40;99.90
59313;DHT22;45084;51.486;7.366;2023-12-22T14:39:17;8.40;99.90
59313;DHT22;45084;51.486;7.366;2023-12-22T14:44:18;8.50;99.90
59313;DHT22;45084;51.486;7.366;2023-12-22T14:49:19;8.60;99.90
59313;DHT22;45084;51.486;7.366;2023-12-22T14:51:45;8.60;99.90
59313;DHT22;45084;51.486;7.366;2023-12-22T14:54:22;8.60;99.90
59313;DHT22;45084;51.486;7.366;2023-12-22T14:56:48;8.60;99.90
59313;DHT22;45084;51.486;7.366;2023-12-22T14:59:17;8.60;99.90
59313;DHT22;45084;51.486;7.366;2023-12-22T15:01:45;8.70;99.90
59313;DHT22;45084;51.486;7.366;2023-12-22T15:04:13;8.70;99.90
59313;DHT22;45084;51.486;7.366;2023-12-22T15:06:40;8.70;99.90
59313;DHT22;45084;51.486;7.366;2023-12-22T15:09:07;8.70;99.90
59313;DHT22;45084;51.486;7.366;2023-12-22T15:11:32;8.60;99.90
59313;DHT22;45084;51.486;7.366;2023-12-22T15:13:59;8.60;99.90
59313;DHT22;45084;51.486;7.366;2023-12-22T15:16:25;8.60;99.90
59313;DHT22;45084;51.486;7.366;2023-12-22T15:18:50;8.50;99.90
59313;DHT22;45084;51.486;7.366;2023-12-22T15:21:22;8.40;99.90
59313;DHT22;45084;51.486;7.366;2023-12-22T15:52:18;7.90;99.90
59313;DHT22;45084;51.486;7.366;2023-12-22T15:54:44;7.90;99.90
59313;DHT22;45084;51.486;7.366;2023-12-22T15:57:10;7.90;99.90
59313;DHT22;45084;51.486;7.366;2023-12-22T15:59:38;7.80;99.90
59313;DHT22;45084;51.486;7.366;2023-12-22T16:02:15;7.90;99.90
59313;DHT22;45084;51.486;7.366;2023-12-22T16:04:44;7.90;99.90
59313;DHT22;45084;51.486;7.366;2023-12-22T16:07:23;7.80;99.90
59313;DHT22;45084;51.486;7.366;2023-12-22T16:09:51;7.90;99.90
59313;DHT22;45084;51.486;7.366;2023-12-22T16:12:18;8.00;99.90
59313;DHT22;45084;51.486;7.366;2023-12-22T16:14:43;8.00;99.90
59313;DHT22;45084;51.486;7.366;2023-12-22T16:17:09;8.00;99.90
59313;DHT22;45084;51.486;7.366;2023-12-22T16:19:37;8.10;99.90
59313;DHT22;45084;51.486;7.366;2023-12-22T16:22:08;8.10;99.90
59313;DHT22;45084;51.486;7.366;2023-12-22T16:24:38;8.10;99.90
59313;DHT22;45084;51.486;7.366;2023-12-22T16:27:04;8.10;99.90
59313;DHT22;45084;51.486;7.366;2023-12-22T16:29:30;8.10;99.90
59313;DHT22;45084;51.486;7.366;2023-12-22T16:31:59;8.20;99.90
59313;DHT22;45084;51.486;7.366;2023-12-22T16:34:27;8.20;99.90
59313;DHT22;45084;51.486;7.366;2023-12-22T17:05:23;8.30;99.90
59313;DHT22;45084;51.486;7.366;2023-12-22T17:07:49;8.30;99.90
59313;DHT22;45084;51.486;7.366;2023-12-22T17:10:15;8.40;99.90
59313;DHT22;45084;51.486;7.366;2023-12-22T17:12:43;8.50;99.90
59313;DHT22;45084;51.486;7.366;2023-12-22T17:15:09;8.40;99.90
59313;DHT22;45084;51.486;7.366;2023-12-22T17:17:38;8.30;99.90
59313;DHT22;45084;51.486;7.366;2023-12-22T17:20:07;8.40;99.90
59313;DHT22;45084;51.486;7.366;2023-12-22T17:22:37;8.30;99.90
59313;DHT22;45084;51.486;7.366;2023-12-22T17:25:03;8.30;99.90
59313;DHT22;45084;51.486;7.366;2023-12-22T17:27:29;8.30;99.90
59313;DHT22;45084;51.486;7.366;2023-12-22T17:29:55;8.30;99.90
59313;DHT22;45084;51.486;7.366;2023-12-22T17:32:28;8.40;99.90
59313;DHT22;45084;51.486;7.366;2023-12-22T17:34:53;8.40;99.90
59313;DHT22;45084;51.486;7.366;2023-12-22T17:37:19;8.30;99.90
59313;DHT22;45084;51.486;7.366;2023-12-22T17:39:44;8.30;99.90
59313;DHT22;45084;51.486;7.366;2023-12-22T17:42:10;7.60;99.90
59313;DHT22;45084;51.486;7.366;2023-12-22T17:44:36;7.40;99.90
59313;DHT22;45084;51.486;7.366;2023-12-22T17:47:01;7.10;99.90
59313;DHT22;45084;51.486;7.366;2023-12-22T17:49:29;6.90;99.90
59313;DHT22;45084;51.486;7.366;2023-12-22T17:51:55;6.80;99.90
59313;DHT22;45084;51.486;7.366;2023-12-22T17:54:21;6.70;99.90
59313;DHT22;45084;51.486;7.366;2023-12-22T17:56:46;6.70;99.90
59313;DHT22;45084;51.486;7.366;2023-12-22T17:59:12;6.80;99.90
59313;DHT22;45084;51.486;7.366;2023-12-22T18:01:41;6.70;99.90
59313;DHT22;45084;51.486;7.366;2023-12-22T18:04:07;6.80;99.90
59313;DHT22;45084;51.486;7.366;2023-12-22T18:06:33;6.70;99.90
59313;DHT22;45084;51.486;7.366;2023-12-22T18:08:59;6.70;99.90
59313;DHT22;45084;51.486;7.366;2023-12-22T18:11:25;6.70;99.90
59313;DHT22;45084;51.486;7.366;2023-12-22T18:13:50;6.70;99.90
59313;DHT22;45084;51.486;7.366;2023-12-22T18:16:20;6.70;99.90
59313;DHT22;45084;51.486;7.366;2023-12-22T18:18:46;6.70;99.90
59313;DHT22;45084;51.486;7.366;2023-12-22T18:21:12;6.70;99.90
59313;DHT22;45084;51.486;7.366;2023-12-22T18:23:38;6.60;99.90
59313;DHT22;45084;51.486;7.366;2023-12-22T18:26:05;6.70;99.90
59313;DHT22;45084;51.486;7.366;2023-12-22T18:28:31;6.70;99.90
59313;DHT22;45084;51.486;7.366;2023-12-22T18:30:57;6.70;99.90
59313;DHT22;45084;51.486;7.366;2023-12-22T18:33:22;6.70;99.90
59313;DHT22;45084;51.486;7.366;2023-12-22T18:35:53;6.70;99.90
59313;DHT22;45084;51.486;7.366;2023-12-22T18:38:20;6.70;99.90
59313;DHT22;45084;51.486;7.366;2023-12-22T18:40:47;6.80;99.90
59313;DHT22;45084;51.486;7.366;2023-12-22T18:43:13;6.80;99.90
59313;DHT22;45084;51.486;7.366;2023-12-22T18:45:42;6.80;99.90
59313;DHT22;45084;51.486;7.366;2023-12-22T18:48:07;6.80;99.90
59313;DHT22;45084;51.486;7.366;2023-12-22T18:50:33;6.90;99.90
59313;DHT22;45084;51.486;7.366;2023-12-22T18:52:59;6.90;99.90
59313;DHT22;45084;51.486;7.366;2023-12-22T18:55:28;6.90;99.90
59313;DHT22;45084;51.486;7.366;2023-12-22T18:57:53;6.90;99.90
59313;DHT22;45084;51.486;7.366;2023-12-22T19:00:19;6.80;99.90
59313;DHT22;45084;51.486;7.366;2023-12-22T19:02:45;6.90;99.90
59313;DHT22;45084;51.486;7.366;2023-12-22T19:05:10;6.90;99.90
59313;DHT22;45084;51.486;7.366;2023-12-22T19:07:36;6.90;99.90
59313;DHT22;45084;51.486;7.366;2023-12-22T19:10:03;6.90;99.90
59313;DHT22;45084;51.486;7.366;2023-12-22T19:12:28;6.90;99.90
59313;DHT22;45084;51.486;7.366;2023-12-22T19:14:54;7.00;99.90
59313;DHT22;45084;51.486;7.366;2023-12-22T19:17:19;6.90;99.90
59313;DHT22;45084;51.486;7.366;2023-12-22T19:19:45;6.90;99.90
59313;DHT22;45084;51.486;7.366;2023-12-22T19:22:11;7.00;99.90
59313;DHT22;45084;51.486;7.366;2023-12-22T19:24:37;6.90;99.90
59313;DHT22;45084;51.486;7.366;2023-12-22T19:27:03;6.90;99.90
59313;DHT22;45084;51.486;7.366;2023-12-22T19:29:28;6.90;99.90
59313;DHT22;45084;51.486;7.366;2023-12-22T19:31:54;7.00;99.90
59313;DHT22;45084;51.486;7.366;2023-12-22T19:34:20;6.90;99.90
59313;DHT22;45084;51.486;7.366;2023-12-22T19:36:45;7.00;99.90
59313;DHT22;45084;51.486;7.366;2023-12-22T19:39:11;6.90;99.90
59313;DHT22;45084;51.486;7.366;2023-12-22T19:41:37;6.90;99.90
59313;DHT22;45084;51.486;7.366;2023-12-22T19:44:02;6.90;99.90
59313;DHT22;45084;51.486;7.366;2023-12-22T19:46:28;6.90;99.90
59313;DHT22;45084;51.486;7.366;2023-12-22T19:48:54;6.80;99.90
59313;DHT22;45084;51.486;7.366;2023-12-22T19:51:20;6.90;99.90
59313;DHT22;45084;51.486;7.366;2023-12-22T19:53:45;6.90;99.90
59313;DHT22;45084;51.486;7.366;2023-12-22T19:56:14;6.90;99.90
59313;DHT22;45084;51.486;7.366;2023-12-22T19:58:39;6.80;99.90
59313;DHT22;45084;51.486;7.366;2023-12-22T20:01:05;6.90;99.90
59313;DHT22;45084;51.486;7.366;2023-12-22T20:03:31;6.90;99.90
59313;DHT22;45084;51.486;7.366;2023-12-22T20:05:57;6.90;99.90
59313;DHT22;45084;51.486;7.366;2023-12-22T20:08:24;6.90;99.90
59313;DHT22;45084;51.486;7.366;2023-12-22T20:10:51;6.90;99.90
59313;DHT22;45084;51.486;7.366;2023-12-22T20:13:17;6.80;99.90
59313;DHT22;45084;51.486;7.366;2023-12-22T20:15:44;6.80;99.90
59313;DHT22;45084;51.486;7.366;2023-12-22T20:18:10;6.80;99.90
59313;DHT22;45084;51.486;7.366;2023-12-22T20:20:35;6.80;99.90
59313;DHT22;45084;51.486;7.366;2023-12-22T20:23:01;6.80;99.90
59313;DHT22;45084;51.486;7.366;2023-12-22T20:25:27;6.70;99.90
59313;DHT22;45084;51.486;7.366;2023-12-22T20:27:52;6.70;99.90
59313;DHT22;45084;51.486;7.366;2023-12-22T20:30:18;6.70;99.90
59313;DHT22;45084;51.486;7.366;2023-12-22T20:32:44;6.70;99.90
59313;DHT22;45084;51.486;7.366;2023-12-22T20:35:14;6.60;99.90
59313;DHT22;45084;51.486;7.366;2023-12-22T20:37:39;6.60;99.90
59313;DHT22;45084;51.486;7.366;2023-12-22T20:40:06;6.60;99.90
59313;DHT22;45084;51.486;7.366;2023-12-22T20:42:33;6.50;99.90
59313;DHT22;45084;51.486;7.366;2023-12-22T20:44:59;6.50;99.90
59313;DHT22;45084;51.486;7.366;2023-12-22T20:47:26;6.60;99.90